sensor_id;sensor_type;location;lat;lon;timestamp;P1;durP1;ratioP1;P2;durP2;ratioP2
11187;SDS011;5650;52.700;7.306;2023-08-12T00:00:02;10.70;;;5.32;;
11187;SDS011;5650;52.700;7.306;2023-08-12T00:02:36;10.02;;;4.03;;
11187;SDS011;5650;52.700;7.306;2023-08-12T00:05:03;6.55;;;3.90;;
11187;SDS011;5650;52.700;7.306;2023-08-12T00:07:31;8.00;;;3.92;;
11187;SDS011;5650;52.700;7.306;2023-08-12T00:09:59;7.07;;;4.10;;
11187;SDS011;5650;52.700;7.306;2023-08-12T00:12:26;7.20;;;3.67;;
11187;SDS011;5650;52.700;7.306;2023-08-12T00:14:54;5.28;;;3.78;;
11187;SDS011;5650;52.700;7.306;2023-08-12T00:17:23;10.68;;;4.65;;
11187;SDS011;5650;52.700;7.306;2023-08-12T00:19:50;7.15;;;4.18;;
11187;SDS011;5650;52.700;7.306;2023-08-12T00:22:17;7.65;;;4.20;;
11187;SDS011;5650;52.700;7.306;2023-08-12T00:24:45;10.25;;;4.80;;
11187;SDS011;5650;52.700;7.306;2023-08-12T00:27:12;7.93;;;4.72;;
11187;SDS011;5650;52.700;7.306;2023-08-12T00:29:39;8.68;;;4.82;;
11187;SDS011;5650;52.700;7.306;2023-08-12T00:32:08;9.73;;;4.75;;
11187;SDS011;5650;52.700;7.306;2023-08-12T00:34:37;8.25;;;5.00;;
11187;SDS011;5650;52.700;7.306;2023-08-12T00:37:07;13.98;;;5.63;;
11187;SDS011;5650;52.700;7.306;2023-08-12T00:39:35;12.18;;;5.55;;
11187;SDS011;5650;52.700;7.306;2023-08-12T00:42:02;10.70;;;5.43;;
11187;SDS011;5650;52.700;7.306;2023-08-12T00:44:32;9.18;;;5.53;;
11187;SDS011;5650;52.700;7.306;2023-08-12T00:46:59;9.15;;;4.80;;
11187;SDS011;5650;52.700;7.306;2023-08-12T00:49:27;14.35;;;6.43;;
11187;SDS011;5650;52.700;7.306;2023-08-12T00:51:56;7.60;;;5.53;;
11187;SDS011;5650;52.700;7.306;2023-08-12T00:54:23;8.25;;;5.75;;
11187;SDS011;5650;52.700;7.306;2023-08-12T00:56:54;9.07;;;5.80;;
11187;SDS011;5650;52.700;7.306;2023-08-12T00:59:22;9.38;;;6.05;;
11187;SDS011;5650;52.700;7.306;2023-08-12T01:01:50;10.27;;;5.78;;
11187;SDS011;5650;52.700;7.306;2023-08-12T01:04:17;11.25;;;6.80;;
11187;SDS011;5650;52.700;7.306;2023-08-12T01:06:44;9.43;;;6.10;;
11187;SDS011;5650;52.700;7.306;2023-08-12T01:09:13;9.75;;;5.85;;
11187;SDS011;5650;52.700;7.306;2023-08-12T01:11:41;10.32;;;6.25;;
11187;SDS011;5650;52.700;7.306;2023-08-12T01:14:16;9.80;;;6.03;;
11187;SDS011;5650;52.700;7.306;2023-08-12T01:16:53;11.98;;;7.43;;
11187;SDS011;5650;52.700;7.306;2023-08-12T01:19:28;11.60;;;6.80;;
11187;SDS011;5650;52.700;7.306;2023-08-12T01:22:02;10.80;;;7.28;;
11187;SDS011;5650;52.700;7.306;2023-08-12T01:24:36;9.75;;;7.00;;
11187;SDS011;5650;52.700;7.306;2023-08-12T01:27:05;12.88;;;7.25;;
11187;SDS011;5650;52.700;7.306;2023-08-12T01:29:32;11.00;;;7.72;;
11187;SDS011;5650;52.700;7.306;2023-08-12T01:32:04;13.13;;;7.65;;
11187;SDS011;5650;52.700;7.306;2023-08-12T01:34:39;15.25;;;7.50;;
11187;SDS011;5650;52.700;7.306;2023-08-12T01:37:11;12.10;;;8.05;;
11187;SDS011;5650;52.700;7.306;2023-08-12T01:39:44;8.43;;;6.90;;
11187;SDS011;5650;52.700;7.306;2023-08-12T01:42:16;12.43;;;7.70;;
11187;SDS011;5650;52.700;7.306;2023-08-12T01:44:44;12.02;;;7.88;;
11187;SDS011;5650;52.700;7.306;2023-08-12T01:47:12;15.35;;;8.00;;
11187;SDS011;5650;52.700;7.306;2023-08-12T01:49:40;12.05;;;8.15;;
11187;SDS011;5650;52.700;7.306;2023-08-12T01:52:07;17.38;;;8.50;;
11187;SDS011;5650;52.700;7.306;2023-08-12T01:54:34;11.10;;;7.75;;
11187;SDS011;5650;52.700;7.306;2023-08-12T01:57:03;12.13;;;8.10;;
11187;SDS011;5650;52.700;7.306;2023-08-12T01:59:33;12.30;;;8.60;;
11187;SDS011;5650;52.700;7.306;2023-08-12T02:02:06;11.77;;;8.88;;
11187;SDS011;5650;52.700;7.306;2023-08-12T02:04:33;11.95;;;8.63;;
11187;SDS011;5650;52.700;7.306;2023-08-12T02:07:02;12.07;;;8.20;;
11187;SDS011;5650;52.700;7.306;2023-08-12T02:09:32;15.80;;;10.40;;
11187;SDS011;5650;52.700;7.306;2023-08-12T02:11:59;12.95;;;8.15;;
11187;SDS011;5650;52.700;7.306;2023-08-12T02:14:28;14.32;;;8.63;;
11187;SDS011;5650;52.700;7.306;2023-08-12T02:16:55;14.90;;;9.43;;
11187;SDS011;5650;52.700;7.306;2023-08-12T02:19:22;11.93;;;8.57;;
11187;SDS011;5650;52.700;7.306;2023-08-12T02:21:49;15.50;;;9.00;;
11187;SDS011;5650;52.700;7.306;2023-08-12T02:24:17;12.52;;;8.90;;
11187;SDS011;5650;52.700;7.306;2023-08-12T02:26:44;15.20;;;9.70;;
11187;SDS011;5650;52.700;7.306;2023-08-12T02:29:11;14.45;;;9.65;;
11187;SDS011;5650;52.700;7.306;2023-08-12T02:31:40;12.30;;;8.90;;
11187;SDS011;5650;52.700;7.306;2023-08-12T02:34:10;13.88;;;10.00;;
11187;SDS011;5650;52.700;7.306;2023-08-12T02:36:37;17.80;;;10.00;;
11187;SDS011;5650;52.700;7.306;2023-08-12T02:39:04;11.40;;;9.48;;
11187;SDS011;5650;52.700;7.306;2023-08-12T02:41:34;11.85;;;9.20;;
11187;SDS011;5650;52.700;7.306;2023-08-12T02:44:01;16.73;;;10.68;;
11187;SDS011;5650;52.700;7.306;2023-08-12T02:46:29;12.82;;;9.43;;
11187;SDS011;5650;52.700;7.306;2023-08-12T02:49:00;15.02;;;10.32;;
11187;SDS011;5650;52.700;7.306;2023-08-12T02:51:27;15.75;;;10.70;;
11187;SDS011;5650;52.700;7.306;2023-08-12T02:53:54;13.35;;;10.10;;
11187;SDS011;5650;52.700;7.306;2023-08-12T02:56:22;11.30;;;9.65;;
11187;SDS011;5650;52.700;7.306;2023-08-12T02:58:49;12.90;;;9.98;;
11187;SDS011;5650;52.700;7.306;2023-08-12T03:01:16;15.23;;;9.20;;
11187;SDS011;5650;52.700;7.306;2023-08-12T03:03:44;12.68;;;10.05;;
11187;SDS011;5650;52.700;7.306;2023-08-12T03:06:12;14.15;;;9.93;;
11187;SDS011;5650;52.700;7.306;2023-08-12T03:08:39;12.52;;;9.73;;
11187;SDS011;5650;52.700;7.306;2023-08-12T03:11:06;14.48;;;10.35;;
11187;SDS011;5650;52.700;7.306;2023-08-12T03:13:33;12.00;;;10.05;;
11187;SDS011;5650;52.700;7.306;2023-08-12T03:16:00;11.88;;;9.30;;
11187;SDS011;5650;52.700;7.306;2023-08-12T03:18:36;13.40;;;9.65;;
11187;SDS011;5650;52.700;7.306;2023-08-12T03:21:05;14.20;;;9.85;;
11187;SDS011;5650;52.700;7.306;2023-08-12T03:23:34;14.98;;;10.27;;
11187;SDS011;5650;52.700;7.306;2023-08-12T03:26:03;13.23;;;10.27;;
11187;SDS011;5650;52.700;7.306;2023-08-12T03:28:31;13.98;;;9.88;;
11187;SDS011;5650;52.700;7.306;2023-08-12T03:30:58;15.43;;;10.45;;
11187;SDS011;5650;52.700;7.306;2023-08-12T03:33:28;15.85;;;11.00;;
11187;SDS011;5650;52.700;7.306;2023-08-12T03:35:57;14.75;;;10.05;;
11187;SDS011;5650;52.700;7.306;2023-08-12T03:38:24;17.05;;;10.25;;
11187;SDS011;5650;52.700;7.306;2023-08-12T03:40:53;16.38;;;10.90;;
11187;SDS011;5650;52.700;7.306;2023-08-12T03:43:21;17.90;;;11.48;;
11187;SDS011;5650;52.700;7.306;2023-08-12T03:45:48;12.90;;;9.77;;
11187;SDS011;5650;52.700;7.306;2023-08-12T03:48:18;18.33;;;10.82;;
11187;SDS011;5650;52.700;7.306;2023-08-12T03:50:51;15.65;;;10.38;;
11187;SDS011;5650;52.700;7.306;2023-08-12T03:53:24;13.25;;;9.57;;
11187;SDS011;5650;52.700;7.306;2023-08-12T03:55:53;15.73;;;11.10;;
11187;SDS011;5650;52.700;7.306;2023-08-12T03:58:22;15.95;;;11.02;;
11187;SDS011;5650;52.700;7.306;2023-08-12T04:00:49;18.52;;;11.57;;
11187;SDS011;5650;52.700;7.306;2023-08-12T04:03:16;17.27;;;12.10;;
11187;SDS011;5650;52.700;7.306;2023-08-12T04:05:47;17.65;;;11.20;;
11187;SDS011;5650;52.700;7.306;2023-08-12T04:08:18;16.88;;;10.77;;
11187;SDS011;5650;52.700;7.306;2023-08-12T04:10:56;16.63;;;11.32;;
11187;SDS011;5650;52.700;7.306;2023-08-12T04:13:24;19.33;;;12.57;;
11187;SDS011;5650;52.700;7.306;2023-08-12T04:15:51;14.65;;;11.85;;
11187;SDS011;5650;52.700;7.306;2023-08-12T04:18:22;16.88;;;13.48;;
11187;SDS011;5650;52.700;7.306;2023-08-12T04:20:49;18.35;;;13.10;;
11187;SDS011;5650;52.700;7.306;2023-08-12T04:23:17;18.98;;;13.55;;
11187;SDS011;5650;52.700;7.306;2023-08-12T04:25:45;16.33;;;12.48;;
11187;SDS011;5650;52.700;7.306;2023-08-12T04:28:14;18.55;;;13.75;;
11187;SDS011;5650;52.700;7.306;2023-08-12T04:30:42;19.83;;;13.60;;
11187;SDS011;5650;52.700;7.306;2023-08-12T04:33:10;16.40;;;13.18;;
11187;SDS011;5650;52.700;7.306;2023-08-12T04:35:38;23.58;;;14.20;;
11187;SDS011;5650;52.700;7.306;2023-08-12T04:38:07;22.35;;;15.63;;
11187;SDS011;5650;52.700;7.306;2023-08-12T04:40:34;19.42;;;13.57;;
11187;SDS011;5650;52.700;7.306;2023-08-12T04:43:04;16.88;;;13.73;;
11187;SDS011;5650;52.700;7.306;2023-08-12T04:45:33;18.42;;;14.98;;
11187;SDS011;5650;52.700;7.306;2023-08-12T04:48:00;18.38;;;14.57;;
11187;SDS011;5650;52.700;7.306;2023-08-12T04:50:32;18.42;;;14.55;;
11187;SDS011;5650;52.700;7.306;2023-08-12T04:53:00;16.92;;;13.63;;
11187;SDS011;5650;52.700;7.306;2023-08-12T04:55:30;19.23;;;14.98;;
11187;SDS011;5650;52.700;7.306;2023-08-12T04:58:00;17.63;;;14.32;;
11187;SDS011;5650;52.700;7.306;2023-08-12T05:00:28;16.08;;;14.23;;
11187;SDS011;5650;52.700;7.306;2023-08-12T05:03:04;19.27;;;14.63;;
11187;SDS011;5650;52.700;7.306;2023-08-12T05:05:31;18.75;;;14.77;;
11187;SDS011;5650;52.700;7.306;2023-08-12T05:08:08;20.70;;;14.68;;
11187;SDS011;5650;52.700;7.306;2023-08-12T05:10:36;18.45;;;15.13;;
11187;SDS011;5650;52.700;7.306;2023-08-12T05:13:03;17.85;;;13.32;;
11187;SDS011;5650;52.700;7.306;2023-08-12T05:15:30;15.75;;;13.70;;
11187;SDS011;5650;52.700;7.306;2023-08-12T05:17:59;18.30;;;14.18;;
11187;SDS011;5650;52.700;7.306;2023-08-12T05:20:26;20.42;;;14.18;;
11187;SDS011;5650;52.700;7.306;2023-08-12T05:22:57;17.05;;;14.00;;
11187;SDS011;5650;52.700;7.306;2023-08-12T05:25:24;17.98;;;14.43;;
11187;SDS011;5650;52.700;7.306;2023-08-12T05:27:51;18.65;;;14.43;;
11187;SDS011;5650;52.700;7.306;2023-08-12T05:30:24;19.42;;;13.30;;
11187;SDS011;5650;52.700;7.306;2023-08-12T05:32:52;17.35;;;13.75;;
11187;SDS011;5650;52.700;7.306;2023-08-12T05:35:20;17.60;;;14.70;;
11187;SDS011;5650;52.700;7.306;2023-08-12T05:37:47;17.58;;;14.05;;
11187;SDS011;5650;52.700;7.306;2023-08-12T05:40:15;18.65;;;14.60;;
11187;SDS011;5650;52.700;7.306;2023-08-12T05:42:42;17.80;;;14.43;;
11187;SDS011;5650;52.700;7.306;2023-08-12T05:45:12;20.05;;;14.38;;
11187;SDS011;5650;52.700;7.306;2023-08-12T05:47:39;18.30;;;14.65;;
11187;SDS011;5650;52.700;7.306;2023-08-12T05:50:06;16.88;;;14.77;;
11187;SDS011;5650;52.700;7.306;2023-08-12T05:52:35;18.35;;;14.35;;
11187;SDS011;5650;52.700;7.306;2023-08-12T05:55:03;18.55;;;14.20;;
11187;SDS011;5650;52.700;7.306;2023-08-12T05:57:34;17.95;;;14.43;;
11187;SDS011;5650;52.700;7.306;2023-08-12T06:00:01;18.05;;;14.07;;
11187;SDS011;5650;52.700;7.306;2023-08-12T06:02:29;17.50;;;14.95;;
11187;SDS011;5650;52.700;7.306;2023-08-12T06:05:02;16.17;;;14.15;;
11187;SDS011;5650;52.700;7.306;2023-08-12T06:07:32;16.77;;;13.75;;
11187;SDS011;5650;52.700;7.306;2023-08-12T06:10:01;14.45;;;12.95;;
11187;SDS011;5650;52.700;7.306;2023-08-12T06:12:34;16.63;;;14.10;;
11187;SDS011;5650;52.700;7.306;2023-08-12T06:15:08;14.73;;;13.18;;
11187;SDS011;5650;52.700;7.306;2023-08-12T06:17:35;17.40;;;14.75;;
11187;SDS011;5650;52.700;7.306;2023-08-12T06:20:03;15.20;;;13.55;;
11187;SDS011;5650;52.700;7.306;2023-08-12T06:22:39;16.92;;;14.25;;
11187;SDS011;5650;52.700;7.306;2023-08-12T06:25:08;19.85;;;14.48;;
11187;SDS011;5650;52.700;7.306;2023-08-12T06:27:38;17.25;;;14.65;;
11187;SDS011;5650;52.700;7.306;2023-08-12T06:30:09;16.77;;;14.48;;
11187;SDS011;5650;52.700;7.306;2023-08-12T06:32:37;14.95;;;13.48;;
11187;SDS011;5650;52.700;7.306;2023-08-12T06:35:04;13.48;;;11.93;;
11187;SDS011;5650;52.700;7.306;2023-08-12T06:37:32;16.17;;;11.90;;
11187;SDS011;5650;52.700;7.306;2023-08-12T06:40:06;13.35;;;11.57;;
11187;SDS011;5650;52.700;7.306;2023-08-12T06:42:36;12.80;;;11.50;;
11187;SDS011;5650;52.700;7.306;2023-08-12T06:45:03;13.00;;;10.80;;
11187;SDS011;5650;52.700;7.306;2023-08-12T06:47:34;11.40;;;10.13;;
11187;SDS011;5650;52.700;7.306;2023-08-12T06:50:04;11.32;;;9.88;;
11187;SDS011;5650;52.700;7.306;2023-08-12T06:52:31;13.70;;;11.10;;
11187;SDS011;5650;52.700;7.306;2023-08-12T06:54:59;9.73;;;8.65;;
11187;SDS011;5650;52.700;7.306;2023-08-12T06:57:27;12.15;;;9.93;;
11187;SDS011;5650;52.700;7.306;2023-08-12T06:59:55;14.18;;;8.85;;
11187;SDS011;5650;52.700;7.306;2023-08-12T07:02:22;13.00;;;8.60;;
11187;SDS011;5650;52.700;7.306;2023-08-12T07:04:49;13.55;;;8.75;;
11187;SDS011;5650;52.700;7.306;2023-08-12T07:07:16;13.77;;;9.00;;
11187;SDS011;5650;52.700;7.306;2023-08-12T07:09:43;14.20;;;9.00;;
11187;SDS011;5650;52.700;7.306;2023-08-12T07:12:10;14.32;;;8.90;;
11187;SDS011;5650;52.700;7.306;2023-08-12T07:14:39;10.63;;;7.53;;
11187;SDS011;5650;52.700;7.306;2023-08-12T07:17:06;10.40;;;8.02;;
11187;SDS011;5650;52.700;7.306;2023-08-12T07:19:34;10.52;;;7.80;;
11187;SDS011;5650;52.700;7.306;2023-08-12T07:22:01;12.30;;;7.13;;
11187;SDS011;5650;52.700;7.306;2023-08-12T07:24:29;9.27;;;6.93;;
11187;SDS011;5650;52.700;7.306;2023-08-12T07:26:56;12.90;;;7.93;;
11187;SDS011;5650;52.700;7.306;2023-08-12T07:29:23;12.25;;;7.30;;
11187;SDS011;5650;52.700;7.306;2023-08-12T07:31:52;11.27;;;6.88;;
11187;SDS011;5650;52.700;7.306;2023-08-12T07:34:20;8.32;;;7.43;;
11187;SDS011;5650;52.700;7.306;2023-08-12T07:36:47;9.23;;;7.22;;
11187;SDS011;5650;52.700;7.306;2023-08-12T07:39:14;9.63;;;7.43;;
11187;SDS011;5650;52.700;7.306;2023-08-12T07:41:43;10.30;;;7.60;;
11187;SDS011;5650;52.700;7.306;2023-08-12T07:44:13;12.38;;;8.02;;
11187;SDS011;5650;52.700;7.306;2023-08-12T07:46:43;12.27;;;7.95;;
11187;SDS011;5650;52.700;7.306;2023-08-12T07:49:12;10.65;;;6.95;;
11187;SDS011;5650;52.700;7.306;2023-08-12T07:51:39;13.00;;;8.57;;
11187;SDS011;5650;52.700;7.306;2023-08-12T07:54:06;9.80;;;7.30;;
11187;SDS011;5650;52.700;7.306;2023-08-12T07:56:36;10.77;;;8.05;;
11187;SDS011;5650;52.700;7.306;2023-08-12T07:59:04;12.75;;;7.72;;
11187;SDS011;5650;52.700;7.306;2023-08-12T08:01:31;9.68;;;7.90;;
11187;SDS011;5650;52.700;7.306;2023-08-12T08:03:58;16.48;;;8.35;;
11187;SDS011;5650;52.700;7.306;2023-08-12T08:06:28;9.50;;;7.72;;
11187;SDS011;5650;52.700;7.306;2023-08-12T08:08:56;14.40;;;8.73;;
11187;SDS011;5650;52.700;7.306;2023-08-12T08:11:29;9.77;;;8.55;;
11187;SDS011;5650;52.700;7.306;2023-08-12T08:14:04;16.85;;;9.38;;
11187;SDS011;5650;52.700;7.306;2023-08-12T08:16:32;12.13;;;9.25;;
11187;SDS011;5650;52.700;7.306;2023-08-12T08:18:59;11.95;;;9.15;;
11187;SDS011;5650;52.700;7.306;2023-08-12T08:21:28;12.48;;;9.10;;
11187;SDS011;5650;52.700;7.306;2023-08-12T08:23:58;10.10;;;9.02;;
11187;SDS011;5650;52.700;7.306;2023-08-12T08:26:26;11.90;;;8.88;;
11187;SDS011;5650;52.700;7.306;2023-08-12T08:28:53;13.63;;;9.43;;
11187;SDS011;5650;52.700;7.306;2023-08-12T08:31:20;12.75;;;9.20;;
11187;SDS011;5650;52.700;7.306;2023-08-12T08:33:48;10.82;;;8.82;;
11187;SDS011;5650;52.700;7.306;2023-08-12T08:36:15;14.40;;;9.60;;
11187;SDS011;5650;52.700;7.306;2023-08-12T08:38:44;20.73;;;9.80;;
11187;SDS011;5650;52.700;7.306;2023-08-12T08:41:12;25.77;;;11.95;;
11187;SDS011;5650;52.700;7.306;2023-08-12T08:43:42;21.10;;;10.82;;
11187;SDS011;5650;52.700;7.306;2023-08-12T08:46:19;17.50;;;10.20;;
11187;SDS011;5650;52.700;7.306;2023-08-12T08:48:47;18.27;;;10.80;;
11187;SDS011;5650;52.700;7.306;2023-08-12T08:51:15;13.07;;;10.48;;
11187;SDS011;5650;52.700;7.306;2023-08-12T08:53:46;12.30;;;10.43;;
11187;SDS011;5650;52.700;7.306;2023-08-12T08:56:14;13.18;;;10.68;;
11187;SDS011;5650;52.700;7.306;2023-08-12T08:58:41;15.82;;;11.05;;
11187;SDS011;5650;52.700;7.306;2023-08-12T09:01:08;12.27;;;10.98;;
11187;SDS011;5650;52.700;7.306;2023-08-12T09:03:36;12.65;;;11.40;;
11187;SDS011;5650;52.700;7.306;2023-08-12T09:06:04;12.85;;;11.15;;
11187;SDS011;5650;52.700;7.306;2023-08-12T09:08:32;13.43;;;11.07;;
11187;SDS011;5650;52.700;7.306;2023-08-12T09:11:01;13.38;;;10.25;;
11187;SDS011;5650;52.700;7.306;2023-08-12T09:13:29;10.15;;;8.45;;
11187;SDS011;5650;52.700;7.306;2023-08-12T09:15:58;12.80;;;8.98;;
11187;SDS011;5650;52.700;7.306;2023-08-12T09:18:25;10.18;;;8.18;;
11187;SDS011;5650;52.700;7.306;2023-08-12T09:20:53;10.23;;;8.15;;
11187;SDS011;5650;52.700;7.306;2023-08-12T09:23:20;10.02;;;7.85;;
11187;SDS011;5650;52.700;7.306;2023-08-12T09:25:47;8.10;;;7.13;;
11187;SDS011;5650;52.700;7.306;2023-08-12T09:28:16;12.82;;;7.93;;
11187;SDS011;5650;52.700;7.306;2023-08-12T09:30:43;10.82;;;7.38;;
11187;SDS011;5650;52.700;7.306;2023-08-12T09:33:18;10.27;;;6.97;;
11187;SDS011;5650;52.700;7.306;2023-08-12T09:35:50;9.98;;;6.65;;
11187;SDS011;5650;52.700;7.306;2023-08-12T09:38:18;11.48;;;7.10;;
11187;SDS011;5650;52.700;7.306;2023-08-12T09:40:46;16.73;;;7.35;;
11187;SDS011;5650;52.700;7.306;2023-08-12T09:43:15;20.95;;;7.47;;
11187;SDS011;5650;52.700;7.306;2023-08-12T09:45:44;14.18;;;7.40;;
11187;SDS011;5650;52.700;7.306;2023-08-12T09:48:11;8.70;;;6.57;;
11187;SDS011;5650;52.700;7.306;2023-08-12T09:50:39;10.45;;;6.75;;
11187;SDS011;5650;52.700;7.306;2023-08-12T09:53:06;16.48;;;7.55;;
11187;SDS011;5650;52.700;7.306;2023-08-12T09:55:38;16.83;;;7.07;;
11187;SDS011;5650;52.700;7.306;2023-08-12T09:58:17;8.00;;;6.53;;
11187;SDS011;5650;52.700;7.306;2023-08-12T10:00:46;8.98;;;6.55;;
11187;SDS011;5650;52.700;7.306;2023-08-12T10:03:14;9.35;;;7.85;;
11187;SDS011;5650;52.700;7.306;2023-08-12T10:05:46;12.55;;;8.18;;
11187;SDS011;5650;52.700;7.306;2023-08-12T10:08:14;10.90;;;8.32;;
11187;SDS011;5650;52.700;7.306;2023-08-12T10:10:42;10.23;;;8.10;;
11187;SDS011;5650;52.700;7.306;2023-08-12T10:13:09;10.30;;;8.88;;
11187;SDS011;5650;52.700;7.306;2023-08-12T10:15:39;11.20;;;9.10;;
11187;SDS011;5650;52.700;7.306;2023-08-12T10:18:06;13.00;;;8.55;;
11187;SDS011;5650;52.700;7.306;2023-08-12T10:20:35;9.48;;;7.93;;
11187;SDS011;5650;52.700;7.306;2023-08-12T10:23:06;9.98;;;8.73;;
11187;SDS011;5650;52.700;7.306;2023-08-12T10:25:41;9.73;;;7.47;;
11187;SDS011;5650;52.700;7.306;2023-08-12T10:28:10;8.98;;;7.22;;
11187;SDS011;5650;52.700;7.306;2023-08-12T10:30:40;7.63;;;6.82;;
11187;SDS011;5650;52.700;7.306;2023-08-12T10:33:08;7.75;;;6.85;;
11187;SDS011;5650;52.700;7.306;2023-08-12T10:35:45;9.07;;;8.07;;
11187;SDS011;5650;52.700;7.306;2023-08-12T10:38:16;9.68;;;8.77;;
11187;SDS011;5650;52.700;7.306;2023-08-12T10:40:44;9.90;;;8.88;;
11187;SDS011;5650;52.700;7.306;2023-08-12T10:43:13;10.77;;;9.43;;
11187;SDS011;5650;52.700;7.306;2023-08-12T10:45:51;9.65;;;8.38;;
11187;SDS011;5650;52.700;7.306;2023-08-12T10:48:21;12.65;;;9.02;;
11187;SDS011;5650;52.700;7.306;2023-08-12T10:50:54;11.18;;;9.30;;
11187;SDS011;5650;52.700;7.306;2023-08-12T10:53:23;9.88;;;8.07;;
11187;SDS011;5650;52.700;7.306;2023-08-12T10:55:55;8.23;;;7.43;;
11187;SDS011;5650;52.700;7.306;2023-08-12T10:58:24;8.88;;;7.97;;
11187;SDS011;5650;52.700;7.306;2023-08-12T11:00:54;7.32;;;6.28;;
11187;SDS011;5650;52.700;7.306;2023-08-12T11:03:25;9.27;;;7.85;;
11187;SDS011;5650;52.700;7.306;2023-08-12T11:05:57;9.52;;;7.47;;
11187;SDS011;5650;52.700;7.306;2023-08-12T11:08:26;12.00;;;7.10;;
11187;SDS011;5650;52.700;7.306;2023-08-12T11:10:54;7.70;;;6.63;;
11187;SDS011;5650;52.700;7.306;2023-08-12T11:13:26;6.28;;;5.38;;
11187;SDS011;5650;52.700;7.306;2023-08-12T11:16:05;5.30;;;4.80;;
11187;SDS011;5650;52.700;7.306;2023-08-12T11:18:33;5.22;;;4.55;;
11187;SDS011;5650;52.700;7.306;2023-08-12T11:21:01;4.50;;;3.70;;
11187;SDS011;5650;52.700;7.306;2023-08-12T11:23:30;4.10;;;2.92;;
11187;SDS011;5650;52.700;7.306;2023-08-12T11:25:58;3.42;;;3.13;;
11187;SDS011;5650;52.700;7.306;2023-08-12T11:28:27;4.03;;;3.10;;
11187;SDS011;5650;52.700;7.306;2023-08-12T11:30:55;5.07;;;3.65;;
11187;SDS011;5650;52.700;7.306;2023-08-12T11:33:23;3.28;;;2.72;;
11187;SDS011;5650;52.700;7.306;2023-08-12T11:35:51;3.03;;;1.52;;
11187;SDS011;5650;52.700;7.306;2023-08-12T11:38:18;2.22;;;1.20;;
11187;SDS011;5650;52.700;7.306;2023-08-12T11:40:46;0.77;;;0.77;;
11187;SDS011;5650;52.700;7.306;2023-08-12T11:43:13;0.88;;;0.80;;
11187;SDS011;5650;52.700;7.306;2023-08-12T11:45:41;1.10;;;0.90;;
11187;SDS011;5650;52.700;7.306;2023-08-12T11:48:09;1.05;;;0.82;;
11187;SDS011;5650;52.700;7.306;2023-08-12T11:50:38;1.10;;;0.85;;
11187;SDS011;5650;52.700;7.306;2023-08-12T11:53:06;1.33;;;0.70;;
11187;SDS011;5650;52.700;7.306;2023-08-12T11:55:33;1.10;;;1.00;;
11187;SDS011;5650;52.700;7.306;2023-08-12T11:58:00;2.00;;;0.80;;
11187;SDS011;5650;52.700;7.306;2023-08-12T12:00:31;1.15;;;0.93;;
11187;SDS011;5650;52.700;7.306;2023-08-12T12:03:02;1.30;;;1.00;;
11187;SDS011;5650;52.700;7.306;2023-08-12T12:05:31;1.75;;;1.30;;
11187;SDS011;5650;52.700;7.306;2023-08-12T12:08:00;2.72;;;1.10;;
11187;SDS011;5650;52.700;7.306;2023-08-12T12:10:30;1.20;;;1.10;;
11187;SDS011;5650;52.700;7.306;2023-08-12T12:12:59;1.40;;;1.02;;
11187;SDS011;5650;52.700;7.306;2023-08-12T12:15:28;1.42;;;1.05;;
11187;SDS011;5650;52.700;7.306;2023-08-12T12:17:55;1.23;;;0.95;;
11187;SDS011;5650;52.700;7.306;2023-08-12T12:20:22;1.35;;;1.05;;
11187;SDS011;5650;52.700;7.306;2023-08-12T12:22:50;1.70;;;0.98;;
11187;SDS011;5650;52.700;7.306;2023-08-12T12:25:19;1.65;;;0.93;;
11187;SDS011;5650;52.700;7.306;2023-08-12T12:27:48;0.95;;;0.90;;
11187;SDS011;5650;52.700;7.306;2023-08-12T12:30:15;2.42;;;0.88;;
11187;SDS011;5650;52.700;7.306;2023-08-12T12:32:44;0.90;;;0.90;;
11187;SDS011;5650;52.700;7.306;2023-08-12T12:35:11;4.22;;;0.80;;
11187;SDS011;5650;52.700;7.306;2023-08-12T12:37:39;2.15;;;1.20;;
11187;SDS011;5650;52.700;7.306;2023-08-12T12:40:07;1.00;;;1.00;;
11187;SDS011;5650;52.700;7.306;2023-08-12T12:42:36;1.63;;;0.98;;
11187;SDS011;5650;52.700;7.306;2023-08-12T12:45:05;1.10;;;1.00;;
11187;SDS011;5650;52.700;7.306;2023-08-12T12:47:35;2.95;;;1.02;;
11187;SDS011;5650;52.700;7.306;2023-08-12T12:50:04;1.95;;;0.98;;
11187;SDS011;5650;52.700;7.306;2023-08-12T12:52:31;0.82;;;0.70;;
11187;SDS011;5650;52.700;7.306;2023-08-12T12:54:59;3.33;;;0.85;;
11187;SDS011;5650;52.700;7.306;2023-08-12T12:57:29;1.45;;;0.70;;
11187;SDS011;5650;52.700;7.306;2023-08-12T12:59:57;0.60;;;0.60;;
11187;SDS011;5650;52.700;7.306;2023-08-12T13:02:24;0.60;;;0.60;;
11187;SDS011;5650;52.700;7.306;2023-08-12T13:04:54;1.05;;;0.57;;
11187;SDS011;5650;52.700;7.306;2023-08-12T13:07:21;1.33;;;0.52;;
11187;SDS011;5650;52.700;7.306;2023-08-12T13:09:48;2.08;;;0.50;;
11187;SDS011;5650;52.700;7.306;2023-08-12T13:12:18;1.98;;;0.55;;
11187;SDS011;5650;52.700;7.306;2023-08-12T13:14:45;0.85;;;0.60;;
11187;SDS011;5650;52.700;7.306;2023-08-12T13:17:16;0.30;;;0.30;;
11187;SDS011;5650;52.700;7.306;2023-08-12T13:19:43;0.93;;;0.50;;
11187;SDS011;5650;52.700;7.306;2023-08-12T13:22:13;2.80;;;0.50;;
11187;SDS011;5650;52.700;7.306;2023-08-12T13:24:40;0.85;;;0.38;;
11187;SDS011;5650;52.700;7.306;2023-08-12T13:27:10;0.95;;;0.75;;
11187;SDS011;5650;52.700;7.306;2023-08-12T13:29:38;3.28;;;0.98;;
11187;SDS011;5650;52.700;7.306;2023-08-12T13:32:05;6.20;;;2.80;;
11187;SDS011;5650;52.700;7.306;2023-08-12T13:34:34;1.88;;;1.05;;
11187;SDS011;5650;52.700;7.306;2023-08-12T13:37:01;0.50;;;0.50;;
11187;SDS011;5650;52.700;7.306;2023-08-12T13:39:28;1.00;;;0.70;;
11187;SDS011;5650;52.700;7.306;2023-08-12T13:41:56;5.03;;;1.48;;
11187;SDS011;5650;52.700;7.306;2023-08-12T13:44:23;1.00;;;0.80;;
11187;SDS011;5650;52.700;7.306;2023-08-12T13:46:50;2.33;;;0.75;;
11187;SDS011;5650;52.700;7.306;2023-08-12T13:49:17;1.05;;;0.60;;
11187;SDS011;5650;52.700;7.306;2023-08-12T13:51:45;1.15;;;0.50;;
11187;SDS011;5650;52.700;7.306;2023-08-12T13:54:13;0.70;;;0.60;;
11187;SDS011;5650;52.700;7.306;2023-08-12T13:56:40;1.00;;;0.77;;
11187;SDS011;5650;52.700;7.306;2023-08-12T13:59:07;1.38;;;0.90;;
11187;SDS011;5650;52.700;7.306;2023-08-12T14:01:36;0.80;;;0.70;;
11187;SDS011;5650;52.700;7.306;2023-08-12T14:04:04;1.67;;;1.10;;
11187;SDS011;5650;52.700;7.306;2023-08-12T14:06:31;1.85;;;0.70;;
11187;SDS011;5650;52.700;7.306;2023-08-12T14:09:00;1.95;;;1.17;;
11187;SDS011;5650;52.700;7.306;2023-08-12T14:11:30;2.15;;;1.30;;
11187;SDS011;5650;52.700;7.306;2023-08-12T14:13:57;2.53;;;1.10;;
11187;SDS011;5650;52.700;7.306;2023-08-12T14:16:24;1.95;;;1.00;;
11187;SDS011;5650;52.700;7.306;2023-08-12T14:18:57;2.70;;;1.58;;
11187;SDS011;5650;52.700;7.306;2023-08-12T14:21:24;2.22;;;1.30;;
11187;SDS011;5650;52.700;7.306;2023-08-12T14:23:51;6.13;;;1.75;;
11187;SDS011;5650;52.700;7.306;2023-08-12T14:26:19;4.38;;;2.53;;
11187;SDS011;5650;52.700;7.306;2023-08-12T14:28:49;2.80;;;1.77;;
11187;SDS011;5650;52.700;7.306;2023-08-12T14:31:17;5.43;;;1.98;;
11187;SDS011;5650;52.700;7.306;2023-08-12T14:33:47;6.47;;;2.03;;
11187;SDS011;5650;52.700;7.306;2023-08-12T14:36:14;4.43;;;2.13;;
11187;SDS011;5650;52.700;7.306;2023-08-12T14:38:46;3.13;;;1.73;;
11187;SDS011;5650;52.700;7.306;2023-08-12T14:41:14;4.40;;;1.95;;
11187;SDS011;5650;52.700;7.306;2023-08-12T14:43:42;4.20;;;1.67;;
11187;SDS011;5650;52.700;7.306;2023-08-12T14:46:09;4.88;;;2.00;;
11187;SDS011;5650;52.700;7.306;2023-08-12T14:48:37;6.28;;;1.65;;
11187;SDS011;5650;52.700;7.306;2023-08-12T14:51:13;4.45;;;1.80;;
11187;SDS011;5650;52.700;7.306;2023-08-12T14:53:40;4.70;;;1.80;;
11187;SDS011;5650;52.700;7.306;2023-08-12T14:56:13;7.40;;;2.00;;
11187;SDS011;5650;52.700;7.306;2023-08-12T14:58:44;5.22;;;1.90;;